createdAt,value
2018-11-23T00:00:02.536Z,18.06
2018-11-23T00:00:37.915Z,17.88
2018-11-23T00:01:13.304Z,17.64
2018-11-23T00:01:48.621Z,17.99
2018-11-23T00:02:24.178Z,17.71
2018-11-23T00:03:00.583Z,17.91
2018-11-23T00:03:35.993Z,17.82
2018-11-23T00:04:11.290Z,17.92
2018-11-23T00:04:46.995Z,17.80
2018-11-23T00:05:22.991Z,17.86
2018-11-23T00:05:58.391Z,18.05
2018-11-23T00:06:33.601Z,17.55
2018-11-23T00:07:09.036Z,17.56
2018-11-23T00:07:45.306Z,17.48
2018-11-23T00:08:20.725Z,17.42
2018-11-23T00:08:56.086Z,17.45
2018-11-23T00:09:31.575Z,17.47
2018-11-23T00:10:09.644Z,17.37
2018-11-23T00:10:45.193Z,17.83
2018-11-23T00:11:20.330Z,17.66
2018-11-23T00:11:55.798Z,17.34
2018-11-23T00:12:31.149Z,17.28
2018-11-23T00:13:06.683Z,17.53
2018-11-23T00:13:41.825Z,17.89
2018-11-23T00:14:17.290Z,17.56
2018-11-23T00:14:52.589Z,17.46
2018-11-23T00:15:27.953Z,17.48
2018-11-23T00:16:03.184Z,17.43
2018-11-23T00:16:38.636Z,17.57
2018-11-23T00:17:14.068Z,17.32
2018-11-23T00:17:49.671Z,17.71
2018-11-23T00:18:25.150Z,17.51
2018-11-23T00:19:00.458Z,17.58
2018-11-23T00:19:35.969Z,17.38
2018-11-23T00:20:14.497Z,18.06
2018-11-23T00:20:49.923Z,17.59
2018-11-23T00:21:25.160Z,17.93
2018-11-23T00:22:00.711Z,17.87
2018-11-23T00:22:36.283Z,17.59
2018-11-23T00:23:11.664Z,17.68
2018-11-23T00:23:47.014Z,17.79
2018-11-23T00:24:22.431Z,17.82
2018-11-23T00:24:57.989Z,17.70
2018-11-23T00:25:33.341Z,17.83
2018-11-23T00:26:08.625Z,17.57
2018-11-23T00:26:43.990Z,17.47
2018-11-23T00:27:19.176Z,17.62
2018-11-23T00:27:55.237Z,17.78
2018-11-23T00:28:30.694Z,17.53
2018-11-23T00:29:06.214Z,17.45
2018-11-23T00:29:41.827Z,17.66
2018-11-23T00:30:22.320Z,17.65
2018-11-23T00:30:57.796Z,17.77
2018-11-23T00:31:32.975Z,17.41
2018-11-23T00:32:08.189Z,17.72
2018-11-23T00:32:43.641Z,17.60
2018-11-23T00:33:19.041Z,17.67
2018-11-23T00:33:54.542Z,17.31
2018-11-23T00:34:30.289Z,17.72
2018-11-23T00:35:06.503Z,17.75
2018-11-23T00:35:42.007Z,17.65
2018-11-23T00:36:17.271Z,17.75
2018-11-23T00:36:53.361Z,17.73
2018-11-23T00:37:28.752Z,17.66
2018-11-23T00:38:04.357Z,17.58
2018-11-23T00:38:40.107Z,17.69
2018-11-23T00:39:15.523Z,17.97
2018-11-23T00:39:51.086Z,17.70
2018-11-23T00:40:28.215Z,17.91
2018-11-23T00:41:03.550Z,17.27
2018-11-23T00:41:39.336Z,17.79
2018-11-23T00:42:14.755Z,18.10
2018-11-23T00:42:50.405Z,17.98
2018-11-23T00:43:25.585Z,17.66
2018-11-23T00:44:00.965Z,17.62
2018-11-23T00:44:36.552Z,18.08
2018-11-23T00:45:13.967Z,17.96
2018-11-23T00:45:49.455Z,18.04
2018-11-23T00:46:24.638Z,18.09
2018-11-23T00:47:00.119Z,17.97
2018-11-23T00:47:35.585Z,17.84
2018-11-23T00:48:10.856Z,17.75
2018-11-23T00:48:46.216Z,18.07
2018-11-23T00:49:21.408Z,17.79
2018-11-23T00:49:56.885Z,17.83
2018-11-23T00:50:32.336Z,17.57
2018-11-23T00:51:07.666Z,18.32
2018-11-23T00:51:42.973Z,18.31
2018-11-23T00:52:18.331Z,17.91
2018-11-23T00:52:54.981Z,17.81
2018-11-23T00:53:31.613Z,17.65
2018-11-23T00:54:06.835Z,17.63
2018-11-23T00:54:42.270Z,17.51
2018-11-23T00:55:19.382Z,17.80
2018-11-23T00:55:54.895Z,17.74
2018-11-23T00:56:30.306Z,17.60
2018-11-23T00:57:05.590Z,18.11
2018-11-23T00:57:41.130Z,18.05
2018-11-23T00:58:16.517Z,17.72
2018-11-23T00:58:52.096Z,18.56
2018-11-23T00:59:27.555Z,18.21
2018-11-23T01:00:02.937Z,17.74
2018-11-23T01:00:38.356Z,18.27
2018-11-23T01:01:13.837Z,17.82
2018-11-23T01:01:54.173Z,17.77
2018-11-23T01:02:29.455Z,18.08
2018-11-23T01:03:06.219Z,18.23
2018-11-23T01:03:41.619Z,17.89
2018-11-23T01:04:16.892Z,18.43
2018-11-23T01:04:52.356Z,17.99
2018-11-23T01:05:27.867Z,18.68
2018-11-23T01:06:03.182Z,18.50
2018-11-23T01:06:38.675Z,18.64
2018-11-23T01:07:13.976Z,18.31
2018-11-23T01:07:50.092Z,18.20
2018-11-23T01:08:25.420Z,18.44
2018-11-23T01:09:00.752Z,18.47
2018-11-23T01:09:36.478Z,18.18
2018-11-23T01:10:14.909Z,17.90
2018-11-23T01:10:50.308Z,17.97
2018-11-23T01:11:25.728Z,18.37
2018-11-23T01:12:01.293Z,18.30
2018-11-23T01:12:36.566Z,17.63
2018-11-23T01:13:11.892Z,17.87
2018-11-23T01:13:47.144Z,18.18
2018-11-23T01:14:22.404Z,18.13
2018-11-23T01:14:57.943Z,18.28
2018-11-23T01:15:33.419Z,18.27
2018-11-23T01:16:08.727Z,18.25
2018-11-23T01:16:44.111Z,17.70
2018-11-23T01:17:19.476Z,17.98
2018-11-23T01:17:54.837Z,17.73
2018-11-23T01:18:30.363Z,17.60
2018-11-23T01:19:05.933Z,18.04
2018-11-23T01:19:41.338Z,17.84
2018-11-23T01:20:19.947Z,17.73
2018-11-23T01:20:55.337Z,18.33
2018-11-23T01:21:30.795Z,18.13
2018-11-23T01:22:06.252Z,17.97
2018-11-23T01:22:42.324Z,18.17
2018-11-23T01:23:17.754Z,18.12
2018-11-23T01:23:53.047Z,18.02
2018-11-23T01:24:28.637Z,17.96
2018-11-23T01:25:04.126Z,17.92
2018-11-23T01:25:39.435Z,18.37
2018-11-23T01:26:14.747Z,18.11
2018-11-23T01:26:50.023Z,18.40
2018-11-23T01:27:25.341Z,17.95
2018-11-23T01:28:00.942Z,17.98
2018-11-23T01:28:36.392Z,18.05
2018-11-23T01:29:12.058Z,18.41
2018-11-23T01:29:47.313Z,17.72
2018-11-23T01:30:28.544Z,17.65
2018-11-23T01:31:04.248Z,18.42
2018-11-23T01:31:39.568Z,18.34
2018-11-23T01:32:15.046Z,18.18
2018-11-23T01:32:50.428Z,17.89
2018-11-23T01:33:25.567Z,18.14
2018-11-23T01:34:00.830Z,18.09
2018-11-23T01:34:36.243Z,18.14
2018-11-23T01:35:11.610Z,18.52
2018-11-23T01:35:47.014Z,18.16
2018-11-23T01:36:22.736Z,18.00
2018-11-23T01:36:58.338Z,18.41
2018-11-23T01:37:33.885Z,17.97
2018-11-23T01:38:09.202Z,17.80
2018-11-23T01:38:44.448Z,18.16
2018-11-23T01:39:20.041Z,18.03
2018-11-23T01:39:55.343Z,18.46
2018-11-23T01:40:32.074Z,17.80
2018-11-23T01:41:07.457Z,17.87
2018-11-23T01:41:42.747Z,18.20
2018-11-23T01:42:18.541Z,18.37
2018-11-23T01:42:54.602Z,18.34
2018-11-23T01:43:30.000Z,17.83
2018-11-23T01:44:05.854Z,18.02
2018-11-23T01:44:46.124Z,17.84
2018-11-23T01:45:21.497Z,17.88
2018-11-23T01:45:56.823Z,18.40
2018-11-23T01:46:32.327Z,17.68
2018-11-23T01:47:07.669Z,17.89
2018-11-23T01:47:42.961Z,18.44
2018-11-23T01:48:18.477Z,18.53
2018-11-23T01:48:53.802Z,18.08
2018-11-23T01:49:29.149Z,18.05
2018-11-23T01:50:04.502Z,18.76
2018-11-23T01:50:40.009Z,18.62
2018-11-23T01:51:15.486Z,18.64
2018-11-23T01:51:50.892Z,18.62
2018-11-23T01:52:26.313Z,18.61
2018-11-23T01:53:01.691Z,18.16
2018-11-23T01:53:36.982Z,17.97
2018-11-23T01:54:12.402Z,18.39
2018-11-23T01:54:47.761Z,18.67
2018-11-23T01:55:24.035Z,18.61
2018-11-23T01:55:59.509Z,18.62
2018-11-23T01:56:34.813Z,18.45
2018-11-23T01:57:10.376Z,18.92
2018-11-23T01:57:46.110Z,18.79
2018-11-23T01:58:21.419Z,18.66
2018-11-23T01:58:57.024Z,18.47
2018-11-23T01:59:32.415Z,18.39
2018-11-23T02:00:08.687Z,18.79
2018-11-23T02:00:44.027Z,18.56
2018-11-23T02:01:19.437Z,18.29
2018-11-23T02:01:54.684Z,18.29
2018-11-23T02:02:30.136Z,18.52
2018-11-23T02:03:05.465Z,18.86
2018-11-23T02:03:40.893Z,18.86
2018-11-23T02:04:16.170Z,18.86
2018-11-23T02:04:51.689Z,18.77
2018-11-23T02:05:27.021Z,18.76
2018-11-23T02:06:02.301Z,18.31
2018-11-23T02:06:37.642Z,18.80
2018-11-23T02:07:13.018Z,18.85
2018-11-23T02:07:48.304Z,18.93
2018-11-23T02:08:23.529Z,18.00
2018-11-23T02:08:58.750Z,18.06
2018-11-23T02:09:34.202Z,18.86
2018-11-23T02:10:11.173Z,18.85
2018-11-23T02:10:46.628Z,18.60
2018-11-23T02:11:21.701Z,18.59
2018-11-23T02:11:57.788Z,18.75
2018-11-23T02:12:33.254Z,18.48
2018-11-23T02:13:08.762Z,18.21
2018-11-23T02:13:44.190Z,18.77
2018-11-23T02:14:19.412Z,18.25
2018-11-23T02:14:54.663Z,18.83
2018-11-23T02:15:30.119Z,18.34
2018-11-23T02:16:05.490Z,18.61
2018-11-23T02:16:40.971Z,19.13
2018-11-23T02:17:16.245Z,18.96
2018-11-23T02:17:52.152Z,18.94
2018-11-23T02:18:27.695Z,18.31
2018-11-23T02:19:03.099Z,18.31
2018-11-23T02:19:38.498Z,18.86
2018-11-23T02:20:15.653Z,18.67
2018-11-23T02:20:50.999Z,18.88
2018-11-23T02:21:26.249Z,19.10
2018-11-23T02:22:01.540Z,18.63
2018-11-23T02:22:36.898Z,18.51
2018-11-23T02:23:12.916Z,18.45
2018-11-23T02:23:48.241Z,18.38
2018-11-23T02:24:23.609Z,18.61
2018-11-23T02:24:59.066Z,18.42
2018-11-23T02:25:34.483Z,18.78
2018-11-23T02:26:10.032Z,18.31
2018-11-23T02:26:45.185Z,18.87
2018-11-23T02:27:20.506Z,18.81
2018-11-23T02:27:56.012Z,18.74
2018-11-23T02:28:31.431Z,18.12
2018-11-23T02:29:07.161Z,18.13
2018-11-23T02:29:42.628Z,18.58
2018-11-23T02:30:21.334Z,18.00
2018-11-23T02:30:56.632Z,17.77
2018-11-23T02:31:33.404Z,18.06
2018-11-23T02:32:08.936Z,18.08
2018-11-23T02:32:44.624Z,17.97
2018-11-23T02:33:20.002Z,18.07
2018-11-23T02:33:55.332Z,18.57
2018-11-23T02:34:31.028Z,17.84
2018-11-23T02:35:06.741Z,18.18
2018-11-23T02:35:42.070Z,18.41
2018-11-23T02:36:17.669Z,18.61
2018-11-23T02:36:53.223Z,18.28
2018-11-23T02:37:28.869Z,18.49
2018-11-23T02:38:04.280Z,18.46
2018-11-23T02:38:39.712Z,18.01
2018-11-23T02:39:15.080Z,18.56
2018-11-23T02:39:50.579Z,18.29
2018-11-23T02:40:25.880Z,18.27
2018-11-23T02:41:01.282Z,18.67
2018-11-23T02:41:36.695Z,18.01
2018-11-23T02:42:12.472Z,18.78
2018-11-23T02:42:48.087Z,18.36
2018-11-23T02:43:23.627Z,18.43
2018-11-23T02:43:59.250Z,18.88
2018-11-23T02:44:34.407Z,18.81
2018-11-23T02:45:13.813Z,18.51
2018-11-23T02:45:49.349Z,18.28
2018-11-23T02:46:24.978Z,18.65
2018-11-23T02:47:00.579Z,18.63
2018-11-23T02:47:35.970Z,18.93
2018-11-23T02:48:11.442Z,19.09
2018-11-23T02:48:47.058Z,19.12
2018-11-23T02:49:22.363Z,18.87
2018-11-23T02:49:57.812Z,18.66
2018-11-23T02:50:33.483Z,18.69
2018-11-23T02:51:09.017Z,18.67
2018-11-23T02:51:44.371Z,18.51
2018-11-23T02:52:20.038Z,18.71
2018-11-23T02:52:55.537Z,18.62
2018-11-23T02:53:31.205Z,18.53
2018-11-23T02:54:06.430Z,19.04
2018-11-23T02:54:41.934Z,18.63
2018-11-23T02:55:18.741Z,19.02
2018-11-23T02:55:53.848Z,18.87
2018-11-23T02:56:34.120Z,18.89
2018-11-23T02:57:09.446Z,18.80
2018-11-23T02:57:44.974Z,18.48
2018-11-23T02:58:20.414Z,18.60
2018-11-23T02:58:55.570Z,18.45
2018-11-23T02:59:30.977Z,18.30
2018-11-23T03:00:07.872Z,18.95
2018-11-23T03:00:43.221Z,18.51
2018-11-23T03:01:18.505Z,18.69
2018-11-23T03:01:53.934Z,18.97
2018-11-23T03:02:29.094Z,18.69
2018-11-23T03:03:04.352Z,18.50
2018-11-23T03:03:39.871Z,18.37
2018-11-23T03:04:15.114Z,19.00
2018-11-23T03:04:50.464Z,18.94
2018-11-23T03:05:25.886Z,18.43
2018-11-23T03:06:01.234Z,18.57
2018-11-23T03:06:36.914Z,18.86
2018-11-23T03:07:12.385Z,18.86
2018-11-23T03:07:47.643Z,18.97
2018-11-23T03:08:22.885Z,18.67
2018-11-23T03:08:58.604Z,18.70
2018-11-23T03:09:33.792Z,18.57
2018-11-23T03:10:11.459Z,18.90
2018-11-23T03:10:47.041Z,18.65
2018-11-23T03:11:22.410Z,18.28
2018-11-23T03:11:57.796Z,18.86
2018-11-23T03:12:33.091Z,19.09
2018-11-23T03:13:08.382Z,18.79
2018-11-23T03:13:43.665Z,18.38
2018-11-23T03:14:19.290Z,18.92
2018-11-23T03:14:54.508Z,18.48
2018-11-23T03:15:29.843Z,19.15
2018-11-23T03:16:05.505Z,19.10
2018-11-23T03:16:40.897Z,18.56
2018-11-23T03:17:16.195Z,19.03
2018-11-23T03:17:51.999Z,18.91
2018-11-23T03:18:27.455Z,18.74
2018-11-23T03:19:02.728Z,19.17
2018-11-23T03:19:38.379Z,18.69
2018-11-23T03:20:16.179Z,18.72
2018-11-23T03:20:51.458Z,18.71
2018-11-23T03:21:26.911Z,19.07
2018-11-23T03:22:02.336Z,18.70
2018-11-23T03:22:37.801Z,18.49
2018-11-23T03:23:13.240Z,19.23
2018-11-23T03:23:48.820Z,19.30
2018-11-23T03:24:24.416Z,19.20
2018-11-23T03:24:59.799Z,18.78
2018-11-23T03:25:35.097Z,19.21
2018-11-23T03:26:10.602Z,19.11
2018-11-23T03:26:45.668Z,18.75
2018-11-23T03:27:21.136Z,18.85
2018-11-23T03:27:56.892Z,19.03
2018-11-23T03:28:32.266Z,19.02
2018-11-23T03:29:07.974Z,18.99
2018-11-23T03:29:43.510Z,18.70
2018-11-23T03:30:21.734Z,18.51
2018-11-23T03:30:57.006Z,18.70
2018-11-23T03:31:32.514Z,19.07
2018-11-23T03:32:08.065Z,18.99
2018-11-23T03:32:43.820Z,18.64
2018-11-23T03:33:19.290Z,18.62
2018-11-23T03:33:55.600Z,18.85
2018-11-23T03:34:30.999Z,18.82
2018-11-23T03:35:07.018Z,18.56
2018-11-23T03:35:42.534Z,18.58
2018-11-23T03:36:17.945Z,18.86
2018-11-23T03:36:53.356Z,18.45
2018-11-23T03:37:28.549Z,18.47
2018-11-23T03:38:04.129Z,18.36
2018-11-23T03:38:39.684Z,18.41
2018-11-23T03:39:15.115Z,18.34
2018-11-23T03:39:50.490Z,18.84
2018-11-23T03:40:25.991Z,18.65
2018-11-23T03:41:01.365Z,18.55
2018-11-23T03:41:36.824Z,19.02
2018-11-23T03:42:12.166Z,18.95
2018-11-23T03:42:47.632Z,18.87
2018-11-23T03:43:23.035Z,18.55
2018-11-23T03:43:58.404Z,18.88
2018-11-23T03:44:33.737Z,18.73
2018-11-23T03:45:10.993Z,18.69
2018-11-23T03:45:46.420Z,18.80
2018-11-23T03:46:22.094Z,18.42
2018-11-23T03:46:57.553Z,18.56
2018-11-23T03:47:32.972Z,18.38
2018-11-23T03:48:08.682Z,18.59
2018-11-23T03:48:44.137Z,18.37
2018-11-23T03:49:19.437Z,18.58
2018-11-23T03:49:55.049Z,18.53
2018-11-23T03:50:30.603Z,18.63
2018-11-23T03:51:06.378Z,18.79
2018-11-23T03:51:41.904Z,18.87
2018-11-23T03:52:17.531Z,18.87
2018-11-23T03:52:52.933Z,18.90
2018-11-23T03:53:28.274Z,18.63
2018-11-23T03:54:03.576Z,19.04
2018-11-23T03:54:38.909Z,19.04
2018-11-23T03:55:14.332Z,18.97
2018-11-23T03:55:49.727Z,18.69
2018-11-23T03:56:24.997Z,18.85
2018-11-23T03:57:00.501Z,18.71
2018-11-23T03:57:36.390Z,18.60
2018-11-23T03:58:11.968Z,19.03
2018-11-23T03:58:47.571Z,18.48
2018-11-23T03:59:22.975Z,18.76
2018-11-23T03:59:58.687Z,18.85
2018-11-23T04:00:34.028Z,18.68
2018-11-23T04:01:09.535Z,19.07
2018-11-23T04:01:45.020Z,18.73
2018-11-23T04:02:20.616Z,19.25
2018-11-23T04:02:55.930Z,18.82
2018-11-23T04:03:31.177Z,19.07
2018-11-23T04:04:06.811Z,18.69
2018-11-23T04:04:42.387Z,19.13
2018-11-23T04:05:18.477Z,18.84
2018-11-23T04:05:53.966Z,18.89
2018-11-23T04:06:29.424Z,18.70
2018-11-23T04:07:04.854Z,19.19
2018-11-23T04:07:40.298Z,19.14
2018-11-23T04:08:15.859Z,18.51
2018-11-23T04:08:51.886Z,19.22
2018-11-23T04:09:27.482Z,18.59
2018-11-23T04:10:03.161Z,18.52
2018-11-23T04:10:39.069Z,18.69
2018-11-23T04:11:14.420Z,18.59
2018-11-23T04:11:49.819Z,19.02
2018-11-23T04:12:25.279Z,18.67
2018-11-23T04:13:00.859Z,19.15
2018-11-23T04:13:36.386Z,19.18
2018-11-23T04:14:11.784Z,19.02
2018-11-23T04:14:46.993Z,18.45
2018-11-23T04:15:22.340Z,18.64
2018-11-23T04:15:57.691Z,18.91
2018-11-23T04:16:33.088Z,18.61
2018-11-23T04:17:08.620Z,18.58
2018-11-23T04:17:44.334Z,18.76
2018-11-23T04:18:19.671Z,18.55
2018-11-23T04:18:55.211Z,18.75
2018-11-23T04:19:30.590Z,19.24
2018-11-23T04:20:07.469Z,18.62
2018-11-23T04:20:47.184Z,19.05
2018-11-23T04:21:22.656Z,18.71
2018-11-23T04:21:58.137Z,19.27
2018-11-23T04:22:34.028Z,18.98
2018-11-23T04:23:09.533Z,18.93
2018-11-23T04:23:44.734Z,18.91
2018-11-23T04:24:20.033Z,19.08
2018-11-23T04:24:55.517Z,18.75
2018-11-23T04:25:30.748Z,19.39
2018-11-23T04:26:06.332Z,19.23
2018-11-23T04:26:41.799Z,19.37
2018-11-23T04:27:17.195Z,19.01
2018-11-23T04:27:52.436Z,19.35
2018-11-23T04:28:27.997Z,18.77
2018-11-23T04:29:03.506Z,19.24
2018-11-23T04:29:38.755Z,18.88
2018-11-23T04:30:16.040Z,19.36
2018-11-23T04:30:51.274Z,18.86
2018-11-23T04:31:26.481Z,19.19
2018-11-23T04:32:02.030Z,19.37
2018-11-23T04:32:37.495Z,19.29
2018-11-23T04:33:12.774Z,19.33
2018-11-23T04:33:48.017Z,19.07
2018-11-23T04:34:23.502Z,19.20
2018-11-23T04:34:58.995Z,18.93
2018-11-23T04:35:34.388Z,19.53
2018-11-23T04:36:09.775Z,19.31
2018-11-23T04:36:45.318Z,19.22
2018-11-23T04:37:20.522Z,18.83
2018-11-23T04:37:55.955Z,18.95
2018-11-23T04:38:31.225Z,19.56
2018-11-23T04:39:08.984Z,19.43
2018-11-23T04:39:44.377Z,19.03
2018-11-23T04:40:20.535Z,19.02
2018-11-23T04:40:55.854Z,19.58
2018-11-23T04:41:31.328Z,19.15
2018-11-23T04:42:06.976Z,19.26
2018-11-23T04:42:43.082Z,19.51
2018-11-23T04:43:18.492Z,19.55
2018-11-23T04:43:53.907Z,19.12
2018-11-23T04:44:29.428Z,19.44
2018-11-23T04:45:04.903Z,19.00
2018-11-23T04:45:40.245Z,19.33
2018-11-23T04:46:15.669Z,19.39
2018-11-23T04:46:50.970Z,19.44
2018-11-23T04:47:26.426Z,19.26
2018-11-23T04:48:01.778Z,19.07
2018-11-23T04:48:37.004Z,19.50
2018-11-23T04:49:12.460Z,19.30
2018-11-23T04:49:47.679Z,19.12
2018-11-23T04:50:23.141Z,19.54
2018-11-23T04:50:58.404Z,19.10
2018-11-23T04:51:33.741Z,19.00
2018-11-23T04:52:09.177Z,18.86
2018-11-23T04:52:45.027Z,18.96
2018-11-23T04:53:20.201Z,19.18
2018-11-23T04:53:55.531Z,19.09
2018-11-23T04:54:30.989Z,19.16
2018-11-23T04:55:07.426Z,18.96
2018-11-23T04:55:43.166Z,19.48
2018-11-23T04:56:18.524Z,19.17
2018-11-23T04:56:54.070Z,19.04
2018-11-23T04:57:29.310Z,19.48
2018-11-23T04:58:04.637Z,19.48
2018-11-23T04:58:40.104Z,19.11
2018-11-23T04:59:15.616Z,19.57
2018-11-23T04:59:50.776Z,18.95
2018-11-23T05:00:26.068Z,19.51
2018-11-23T05:01:01.478Z,19.03
2018-11-23T05:01:36.994Z,18.93
2018-11-23T05:02:12.451Z,19.35
2018-11-23T05:02:48.621Z,19.29
2018-11-23T05:03:24.089Z,19.45
2018-11-23T05:03:59.687Z,18.97
2018-11-23T05:04:34.832Z,19.17
2018-11-23T05:05:12.168Z,19.29
2018-11-23T05:05:47.406Z,19.52
2018-11-23T05:06:22.885Z,19.06
2018-11-23T05:06:58.217Z,19.48
2018-11-23T05:07:33.654Z,19.58
2018-11-23T05:08:09.099Z,18.95
2018-11-23T05:08:44.479Z,18.81
2018-11-23T05:09:20.362Z,19.00
2018-11-23T05:09:55.867Z,19.19
2018-11-23T05:10:31.255Z,19.12
2018-11-23T05:11:06.696Z,19.01
2018-11-23T05:11:42.143Z,19.52
2018-11-23T05:12:17.415Z,19.53
2018-11-23T05:12:52.569Z,19.39
2018-11-23T05:13:27.933Z,19.61
2018-11-23T05:14:03.154Z,19.59
2018-11-23T05:14:38.629Z,19.06
2018-11-23T05:15:15.985Z,19.18
2018-11-23T05:15:51.360Z,18.90
2018-11-23T05:16:26.503Z,19.05
2018-11-23T05:17:01.902Z,18.88
2018-11-23T05:17:37.555Z,19.28
2018-11-23T05:18:12.830Z,19.26
2018-11-23T05:18:48.066Z,19.36
2018-11-23T05:19:23.671Z,19.05
2018-11-23T05:19:59.073Z,19.38
2018-11-23T05:20:34.711Z,19.18
2018-11-23T05:21:10.054Z,19.08
2018-11-23T05:21:45.559Z,19.50
2018-11-23T05:22:21.132Z,19.02
2018-11-23T05:22:56.728Z,19.43
2018-11-23T05:23:31.989Z,19.42
2018-11-23T05:24:07.634Z,19.20
2018-11-23T05:24:43.100Z,19.14
2018-11-23T05:25:19.565Z,19.59
2018-11-23T05:25:55.618Z,19.56
2018-11-23T05:26:30.977Z,19.37
2018-11-23T05:27:06.695Z,19.76
2018-11-23T05:27:42.113Z,19.24
2018-11-23T05:28:17.602Z,19.64
2018-11-23T05:28:52.782Z,19.71
2018-11-23T05:29:28.213Z,19.55
2018-11-23T05:30:03.685Z,19.11
2018-11-23T05:30:39.050Z,19.39
2018-11-23T05:31:14.290Z,19.27
2018-11-23T05:31:49.552Z,19.27
2018-11-23T05:32:24.941Z,19.17
2018-11-23T05:33:00.478Z,19.57
2018-11-23T05:33:35.704Z,19.09
2018-11-23T05:34:11.376Z,19.00
2018-11-23T05:34:46.769Z,19.58
2018-11-23T05:35:21.933Z,19.63
2018-11-23T05:35:57.380Z,19.18
2018-11-23T05:36:32.657Z,19.50
2018-11-23T05:37:07.880Z,19.49
2018-11-23T05:37:43.205Z,19.21
2018-11-23T05:38:18.680Z,19.12
2018-11-23T05:38:53.966Z,19.50
2018-11-23T05:39:29.352Z,18.97
2018-11-23T05:40:04.897Z,18.99
2018-11-23T05:40:40.179Z,18.86
2018-11-23T05:41:15.462Z,18.85
2018-11-23T05:41:50.842Z,19.02
2018-11-23T05:42:26.291Z,19.32
2018-11-23T05:43:04.420Z,19.53
2018-11-23T05:43:37.062Z,19.51
2018-11-23T05:44:12.436Z,19.21
2018-11-23T05:44:47.985Z,19.42
2018-11-23T05:45:23.869Z,19.24
2018-11-23T05:45:59.273Z,19.11
2018-11-23T05:46:34.819Z,19.59
2018-11-23T05:47:10.305Z,19.56
2018-11-23T05:47:45.700Z,19.69
2018-11-23T05:48:26.819Z,19.15
2018-11-23T05:48:56.458Z,19.34
2018-11-23T05:49:31.765Z,19.21
2018-11-23T05:50:09.545Z,19.75
2018-11-23T05:50:44.787Z,19.58
2018-11-23T05:51:20.193Z,19.37
2018-11-23T05:51:55.588Z,19.86
2018-11-23T05:52:31.218Z,19.53
2018-11-23T05:53:06.620Z,19.92
2018-11-23T05:53:41.934Z,19.90
2018-11-23T05:54:17.247Z,19.84
2018-11-23T05:54:52.726Z,19.54
2018-11-23T05:55:28.050Z,19.88
2018-11-23T05:56:03.621Z,19.88
2018-11-23T05:56:39.213Z,19.39
2018-11-23T05:57:14.690Z,19.25
2018-11-23T05:57:50.268Z,19.77
2018-11-23T05:58:25.864Z,19.87
2018-11-23T05:59:00.985Z,19.89
2018-11-23T05:59:36.663Z,19.59
2018-11-23T06:00:18.252Z,19.79
2018-11-23T06:00:53.560Z,19.67
2018-11-23T06:01:29.103Z,19.82
2018-11-23T06:02:04.025Z,19.89
2018-11-23T06:02:39.437Z,19.72
2018-11-23T06:03:14.783Z,19.35
2018-11-23T06:03:50.508Z,19.88
2018-11-23T06:04:25.981Z,19.52
2018-11-23T06:05:01.610Z,19.82
2018-11-23T06:05:36.916Z,19.93
2018-11-23T06:06:12.232Z,19.51
2018-11-23T06:06:47.746Z,19.91
2018-11-23T06:07:23.229Z,20.06
2018-11-23T06:07:58.662Z,19.67
2018-11-23T06:08:33.857Z,20.20
2018-11-23T06:09:09.412Z,19.92
2018-11-23T06:09:44.675Z,19.64
2018-11-23T06:10:21.312Z,19.87
2018-11-23T06:10:56.732Z,19.46
2018-11-23T06:11:32.283Z,19.46
2018-11-23T06:12:07.473Z,19.58
2018-11-23T06:12:42.945Z,19.79
2018-11-23T06:13:18.304Z,19.60
2018-11-23T06:13:53.504Z,19.86
2018-11-23T06:14:28.732Z,19.67
2018-11-23T06:15:04.295Z,19.96
2018-11-23T06:15:44.423Z,19.79
2018-11-23T06:16:15.259Z,19.23
2018-11-23T06:16:50.704Z,19.44
2018-11-23T06:17:26.100Z,19.67
2018-11-23T06:18:01.373Z,19.92
2018-11-23T06:18:36.724Z,19.70
2018-11-23T06:19:12.163Z,20.05
2018-11-23T06:19:47.655Z,19.24
2018-11-23T06:20:24.931Z,19.56
2018-11-23T06:21:00.356Z,19.36
2018-11-23T06:21:35.800Z,19.80
2018-11-23T06:22:11.081Z,19.62
2018-11-23T06:22:48.021Z,19.48
2018-11-23T06:23:23.300Z,19.79
2018-11-23T06:23:58.683Z,19.97
2018-11-23T06:24:33.912Z,19.55
2018-11-23T06:25:13.123Z,19.69
2018-11-23T06:25:51.093Z,20.07
2018-11-23T06:26:28.394Z,19.63
2018-11-23T06:27:03.826Z,19.61
2018-11-23T06:27:39.107Z,19.71
2018-11-23T06:28:14.423Z,19.75
2018-11-23T06:28:49.830Z,19.93
2018-11-23T06:29:25.114Z,20.01
2018-11-23T06:30:00.675Z,19.59
2018-11-23T06:30:35.978Z,20.19
2018-11-23T06:31:11.848Z,19.92
2018-11-23T06:31:47.626Z,20.07
2018-11-23T06:32:33.154Z,19.65
2018-11-23T06:33:18.696Z,19.58
2018-11-23T06:33:54.308Z,20.31
2018-11-23T06:34:29.814Z,19.73
2018-11-23T06:35:05.234Z,19.97
2018-11-23T06:35:40.546Z,19.83
2018-11-23T06:36:16.024Z,20.10
2018-11-23T06:36:51.358Z,19.76
2018-11-23T06:37:27.069Z,19.75
2018-11-23T06:38:02.464Z,20.17
2018-11-23T06:38:38.212Z,19.77
2018-11-23T06:39:13.574Z,19.77
2018-11-23T06:39:49.153Z,20.05
2018-11-23T06:40:24.307Z,20.21
2018-11-23T06:40:59.865Z,20.02
2018-11-23T06:41:35.048Z,20.13
2018-11-23T06:42:10.309Z,20.14
2018-11-23T06:42:45.711Z,19.74
2018-11-23T06:43:20.933Z,19.81
2018-11-23T06:43:56.361Z,20.18
2018-11-23T06:44:31.711Z,20.23
2018-11-23T06:45:07.799Z,19.92
2018-11-23T06:45:44.791Z,19.94
2018-11-23T06:46:20.055Z,20.00
2018-11-23T06:46:55.427Z,19.82
2018-11-23T06:47:30.912Z,19.98
2018-11-23T06:48:07.182Z,20.13
2018-11-23T06:48:42.391Z,19.84
2018-11-23T06:49:17.729Z,19.83
2018-11-23T06:49:52.870Z,19.94
2018-11-23T06:50:28.152Z,19.96
2018-11-23T06:51:03.539Z,19.94
2018-11-23T06:51:38.806Z,20.19
2018-11-23T06:52:14.331Z,20.29
2018-11-23T06:52:49.915Z,19.99
2018-11-23T06:53:25.377Z,19.77
2018-11-23T06:54:00.732Z,19.77
2018-11-23T06:54:35.938Z,19.64
2018-11-23T06:55:12.469Z,19.93
2018-11-23T06:55:47.788Z,19.70
2018-11-23T06:56:23.006Z,19.71
2018-11-23T06:56:58.454Z,19.59
2018-11-23T06:57:33.780Z,19.92
2018-11-23T06:58:09.189Z,20.06
2018-11-23T06:58:44.591Z,19.63
2018-11-23T06:59:19.798Z,20.02
2018-11-23T06:59:55.285Z,19.96
2018-11-23T07:00:30.707Z,19.54
2018-11-23T07:01:06.168Z,19.64
2018-11-23T07:01:41.307Z,19.75
2018-11-23T07:02:17.020Z,20.19
2018-11-23T07:02:52.147Z,19.96
2018-11-23T07:03:27.919Z,19.86
2018-11-23T07:04:03.228Z,20.19
2018-11-23T07:04:38.427Z,19.91
2018-11-23T07:05:14.277Z,19.95
2018-11-23T07:05:49.754Z,20.16
2018-11-23T07:06:25.176Z,20.00
2018-11-23T07:07:00.665Z,19.66
2018-11-23T07:07:36.283Z,19.80
2018-11-23T07:08:12.309Z,20.30
2018-11-23T07:08:52.323Z,19.87
2018-11-23T07:09:23.523Z,20.24
2018-11-23T07:09:58.952Z,20.35
2018-11-23T07:10:34.407Z,19.89
2018-11-23T07:11:09.628Z,19.89
2018-11-23T07:11:45.024Z,20.12
2018-11-23T07:12:20.354Z,20.09
2018-11-23T07:12:55.650Z,19.83
2018-11-23T07:13:32.079Z,20.36
2018-11-23T07:14:07.543Z,20.01
2018-11-23T07:14:42.887Z,20.28
2018-11-23T07:15:18.260Z,19.89
2018-11-23T07:15:53.592Z,19.97
2018-11-23T07:16:28.944Z,20.13
2018-11-23T07:17:04.489Z,20.14
2018-11-23T07:17:40.206Z,20.37
2018-11-23T07:18:15.840Z,19.81
2018-11-23T07:18:51.076Z,20.32
2018-11-23T07:19:27.140Z,19.81
2018-11-23T07:20:02.429Z,20.35
2018-11-23T07:20:37.678Z,20.14
2018-11-23T07:21:13.107Z,19.95
2018-11-23T07:21:48.410Z,20.29
2018-11-23T07:22:23.780Z,19.86
2018-11-23T07:22:59.090Z,19.99
2018-11-23T07:23:34.468Z,20.30
2018-11-23T07:24:09.823Z,19.81
2018-11-23T07:24:45.202Z,20.18
2018-11-23T07:25:20.607Z,19.76
2018-11-23T07:25:56.001Z,19.80
2018-11-23T07:26:31.233Z,19.88
2018-11-23T07:27:06.537Z,19.87
2018-11-23T07:27:42.613Z,19.95
2018-11-23T07:28:18.093Z,20.08
2018-11-23T07:28:53.529Z,19.64
2018-11-23T07:29:28.839Z,20.23
2018-11-23T07:30:04.494Z,19.73
2018-11-23T07:30:39.794Z,19.85
2018-11-23T07:31:15.184Z,20.22
2018-11-23T07:31:50.543Z,20.30
2018-11-23T07:32:25.958Z,19.71
2018-11-23T07:33:01.213Z,20.00
2018-11-23T07:33:36.543Z,20.02
2018-11-23T07:34:12.100Z,19.95
2018-11-23T07:34:47.523Z,20.35
2018-11-23T07:35:22.911Z,20.50
2018-11-23T07:35:58.262Z,20.25
2018-11-23T07:36:34.152Z,19.94
2018-11-23T07:37:09.545Z,19.51
2018-11-23T07:37:44.976Z,19.76
2018-11-23T07:38:20.443Z,20.13